createdAt,value
2023-01-29T00:01:33.962Z,63.46
2023-01-29T00:04:00.524Z,63.96
2023-01-29T00:06:27.169Z,66.43
2023-01-29T00:08:53.786Z,67.27
2023-01-29T00:11:24.115Z,68.07
2023-01-29T00:13:51.139Z,67.80
2023-01-29T00:16:17.876Z,67.80
2023-01-29T00:18:45.020Z,68.52
2023-01-29T00:21:16.650Z,68.79
2023-01-29T00:23:43.424Z,68.51
2023-01-29T00:26:10.946Z,68.32
2023-01-29T00:28:37.700Z,68.48
2023-01-29T00:31:13.246Z,68.64
2023-01-29T00:33:39.913Z,68.56
2023-01-29T00:36:08.639Z,68.74
2023-01-29T00:38:37.741Z,68.21
2023-01-29T00:41:29.175Z,69.38
2023-01-29T00:44:14.637Z,68.77
2023-01-29T00:46:41.361Z,68.76
2023-01-29T00:49:08.752Z,68.13
2023-01-29T00:51:36.336Z,68.45
2023-01-29T00:54:06.785Z,68.50
2023-01-29T00:56:35.751Z,68.13
2023-01-29T00:59:03.337Z,68.55
2023-01-29T01:01:48.539Z,68.95
2023-01-29T01:04:15.259Z,68.98
2023-01-29T01:06:42.748Z,68.97
2023-01-29T01:09:29.696Z,69.01
2023-01-29T01:11:57.486Z,68.96
2023-01-29T01:14:27.036Z,68.53
2023-01-29T01:16:53.604Z,68.45
2023-01-29T01:19:20.333Z,68.26
2023-01-29T01:21:49.766Z,68.28
2023-01-29T01:24:16.361Z,68.27
2023-01-29T01:26:42.908Z,67.25
2023-01-29T01:29:09.480Z,68.01
2023-01-29T01:31:36.047Z,67.00
2023-01-29T01:34:02.594Z,67.37
2023-01-29T01:36:29.114Z,67.27
2023-01-29T01:38:55.694Z,67.31
2023-01-29T01:41:24.099Z,67.40
2023-01-29T01:43:56.053Z,67.90
2023-01-29T01:46:23.696Z,67.45
2023-01-29T01:49:02.483Z,67.24
2023-01-29T01:51:32.519Z,67.48
2023-01-29T01:54:18.774Z,67.98
2023-01-29T01:56:50.073Z,67.61
2023-01-29T01:59:19.040Z,67.80
2023-01-29T02:01:51.240Z,67.77
2023-01-29T02:04:41.163Z,66.58
2023-01-29T02:07:30.248Z,66.83
2023-01-29T02:10:04.821Z,67.10
2023-01-29T02:12:33.041Z,66.40
2023-01-29T02:15:00.393Z,66.74
2023-01-29T02:17:27.020Z,66.39
2023-01-29T02:20:19.763Z,66.13
2023-01-29T02:22:56.137Z,66.47
2023-01-29T02:25:58.163Z,66.34
2023-01-29T02:28:49.085Z,66.80
2023-01-29T02:31:39.592Z,67.02
2023-01-29T02:34:18.273Z,67.32
2023-01-29T02:36:51.013Z,66.87
2023-01-29T02:39:23.548Z,66.29
2023-01-29T02:42:11.678Z,66.14
2023-01-29T02:44:52.345Z,66.84
2023-01-29T02:47:42.694Z,66.84
2023-01-29T02:50:18.795Z,66.42
2023-01-29T02:52:56.841Z,65.88
2023-01-29T02:55:31.487Z,65.85
2023-01-29T02:58:05.485Z,65.01
2023-01-29T03:00:36.875Z,64.99
2023-01-29T03:03:18.895Z,65.88
2023-01-29T03:05:59.902Z,66.12
2023-01-29T03:08:43.241Z,65.92
2023-01-29T03:11:14.541Z,66.10
2023-01-29T03:13:46.523Z,66.00
2023-01-29T03:16:22.256Z,65.55
2023-01-29T03:19:04.570Z,65.59
2023-01-29T03:21:53.187Z,66.15
2023-01-29T03:24:45.378Z,65.94
2023-01-29T03:27:33.437Z,65.40
2023-01-29T03:30:20.527Z,65.68
2023-01-29T03:32:51.990Z,65.99
2023-01-29T03:35:33.499Z,65.49
2023-01-29T03:38:00.994Z,65.36
2023-01-29T03:40:34.396Z,64.65
2023-01-29T03:43:10.816Z,64.29
2023-01-29T03:46:01.711Z,64.09
2023-01-29T03:48:45.608Z,64.17
2023-01-29T03:51:22.913Z,64.65
2023-01-29T03:53:49.476Z,63.53
2023-01-29T03:56:21.426Z,64.00
2023-01-29T03:59:12.987Z,64.17
2023-01-29T04:01:48.613Z,64.12
2023-01-29T04:04:22.724Z,63.66
2023-01-29T04:06:53.136Z,63.02
2023-01-29T04:09:27.820Z,62.78
2023-01-29T04:12:02.139Z,64.06
2023-01-29T04:14:29.790Z,63.25
2023-01-29T04:17:00.494Z,63.04
2023-01-29T04:19:28.195Z,63.08
2023-01-29T04:22:06.031Z,62.93
2023-01-29T04:24:33.470Z,62.45
2023-01-29T04:27:21.875Z,62.68
2023-01-29T04:30:11.842Z,61.25
2023-01-29T04:32:59.702Z,61.57
2023-01-29T04:35:44.267Z,61.20
2023-01-29T04:38:42.952Z,61.99
2023-01-29T04:41:30.522Z,61.34
2023-01-29T04:44:14.943Z,62.22
2023-01-29T04:47:10.825Z,61.35
2023-01-29T04:49:55.320Z,61.91
2023-01-29T04:52:34.040Z,61.96
2023-01-29T04:55:29.638Z,61.41
2023-01-29T04:58:17.637Z,61.82
2023-01-29T05:00:49.220Z,61.10
2023-01-29T05:03:16.665Z,61.42
2023-01-29T05:05:48.333Z,60.90
2023-01-29T05:08:19.561Z,61.28
2023-01-29T05:10:48.474Z,60.64
2023-01-29T05:13:16.046Z,60.82
2023-01-29T05:15:52.102Z,60.10
2023-01-29T05:18:18.989Z,59.80
2023-01-29T05:20:47.802Z,60.10
2023-01-29T05:23:22.797Z,58.75
2023-01-29T05:25:50.316Z,58.84
2023-01-29T05:28:17.407Z,58.73
2023-01-29T05:30:56.111Z,57.81
2023-01-29T05:33:33.701Z,57.23
2023-01-29T05:36:00.240Z,58.49
2023-01-29T05:38:26.814Z,58.62
2023-01-29T05:40:54.091Z,58.34
2023-01-29T05:43:25.240Z,58.35
2023-01-29T05:46:01.147Z,58.76
2023-01-29T05:48:29.113Z,58.33
2023-01-29T05:51:00.773Z,58.96
2023-01-29T05:53:29.221Z,58.38
2023-01-29T05:55:57.336Z,59.42
2023-01-29T05:58:23.895Z,59.02
2023-01-29T06:00:50.534Z,58.91
2023-01-29T06:03:17.134Z,58.25
2023-01-29T06:05:46.655Z,57.77
2023-01-29T06:08:13.393Z,57.90
2023-01-29T06:10:40.116Z,58.45
2023-01-29T06:13:07.161Z,58.41
2023-01-29T06:15:33.669Z,59.94
2023-01-29T06:18:06.379Z,59.26
2023-01-29T06:20:32.979Z,59.54
2023-01-29T06:22:59.735Z,59.17
2023-01-29T06:25:26.376Z,58.40
2023-01-29T06:27:53.005Z,58.96
2023-01-29T06:30:19.968Z,58.84
2023-01-29T06:32:46.536Z,58.88
2023-01-29T06:35:13.105Z,58.50
2023-01-29T06:37:39.645Z,59.40
2023-01-29T06:40:06.987Z,58.54
2023-01-29T06:42:35.696Z,57.38
2023-01-29T06:45:02.299Z,58.23
2023-01-29T06:47:28.959Z,58.04
2023-01-29T06:49:59.667Z,58.49
2023-01-29T06:52:28.948Z,58.61
2023-01-29T06:54:58.301Z,58.33
2023-01-29T06:57:24.856Z,57.50
2023-01-29T06:59:51.423Z,57.76
2023-01-29T07:02:20.572Z,57.99
2023-01-29T07:04:47.271Z,57.31
2023-01-29T07:07:13.939Z,57.07
2023-01-29T07:09:41.899Z,58.09
2023-01-29T07:12:09.851Z,57.45
2023-01-29T07:14:36.819Z,57.41
2023-01-29T07:17:03.951Z,57.73
2023-01-29T07:19:30.498Z,57.55
2023-01-29T07:21:57.031Z,56.93
2023-01-29T07:24:24.530Z,56.75
2023-01-29T07:26:51.070Z,56.80
2023-01-29T07:29:17.650Z,57.20
2023-01-29T07:31:44.278Z,57.18
2023-01-29T07:34:10.882Z,57.18
2023-01-29T07:36:37.526Z,56.95
2023-01-29T07:39:06.729Z,56.67
2023-01-29T07:41:33.267Z,57.96
2023-01-29T07:43:59.823Z,58.05
2023-01-29T07:46:26.365Z,58.46
2023-01-29T07:48:52.895Z,58.48
2023-01-29T07:51:21.458Z,58.71
2023-01-29T07:53:48.138Z,57.99
2023-01-29T07:56:14.883Z,58.87
2023-01-29T07:58:41.532Z,58.09
2023-01-29T08:01:08.258Z,58.09
2023-01-29T08:03:35.853Z,57.30
2023-01-29T08:06:04.272Z,57.05
2023-01-29T08:08:31.375Z,57.12
2023-01-29T08:11:01.608Z,57.18
2023-01-29T08:13:28.205Z,57.52
2023-01-29T08:15:54.702Z,57.38
2023-01-29T08:18:27.038Z,56.99
2023-01-29T08:20:54.084Z,57.28
2023-01-29T08:23:20.585Z,56.68
2023-01-29T08:25:47.175Z,56.49
2023-01-29T08:28:13.938Z,56.59
2023-01-29T08:30:42.614Z,57.55
2023-01-29T08:33:09.103Z,57.93
2023-01-29T08:35:36.065Z,57.65
2023-01-29T08:38:09.250Z,58.23
2023-01-29T08:40:38.873Z,57.40
2023-01-29T08:43:09.208Z,57.58
2023-01-29T08:45:40.013Z,58.58
2023-01-29T08:48:07.087Z,60.15
2023-01-29T08:50:35.054Z,58.21
2023-01-29T08:53:03.567Z,58.29
2023-01-29T08:55:30.149Z,58.06
2023-01-29T08:57:59.652Z,58.31
2023-01-29T09:00:28.624Z,58.67
2023-01-29T09:02:55.150Z,57.91
2023-01-29T09:05:21.783Z,58.19
2023-01-29T09:07:48.344Z,58.23
2023-01-29T09:10:15.728Z,59.03
2023-01-29T09:12:42.329Z,58.32
2023-01-29T09:15:09.459Z,58.27
2023-01-29T09:17:35.981Z,58.85
2023-01-29T09:20:10.967Z,58.68
2023-01-29T09:22:37.640Z,59.41
2023-01-29T09:25:04.583Z,59.16
2023-01-29T09:27:31.253Z,59.20
2023-01-29T09:29:57.858Z,58.49
2023-01-29T09:32:52.143Z,56.91
2023-01-29T09:35:15.837Z,57.50
2023-01-29T09:37:42.548Z,56.03
2023-01-29T09:40:31.368Z,55.93
2023-01-29T09:43:14.029Z,56.16
2023-01-29T09:45:51.383Z,56.65
2023-01-29T09:48:20.260Z,57.27
2023-01-29T09:50:51.657Z,56.75
2023-01-29T09:53:32.699Z,56.06
2023-01-29T09:56:04.312Z,56.74
2023-01-29T09:58:36.511Z,56.56
2023-01-29T10:01:22.601Z,56.96
2023-01-29T10:04:11.759Z,56.07
2023-01-29T10:07:00.462Z,55.35
2023-01-29T10:09:48.207Z,55.47
2023-01-29T10:12:38.281Z,54.94
2023-01-29T10:15:17.661Z,53.66
2023-01-29T10:18:09.208Z,53.31
2023-01-29T10:20:53.932Z,53.53
2023-01-29T10:23:35.052Z,52.96
2023-01-29T10:26:02.798Z,53.34
2023-01-29T10:28:36.450Z,53.21
2023-01-29T10:31:17.906Z,53.33
2023-01-29T10:34:03.051Z,52.66
2023-01-29T10:36:43.341Z,52.41
2023-01-29T10:39:21.104Z,52.41
2023-01-29T10:42:00.595Z,51.12
2023-01-29T10:44:35.134Z,51.82
2023-01-29T10:47:28.060Z,51.65
2023-01-29T10:50:28.586Z,51.54
2023-01-29T10:53:33.774Z,51.38
2023-01-29T10:56:25.795Z,50.72
2023-01-29T10:58:57.997Z,51.41
2023-01-29T11:01:24.725Z,50.22
2023-01-29T11:04:11.885Z,51.25
2023-01-29T11:06:38.678Z,50.14
2023-01-29T11:09:26.672Z,48.64
2023-01-29T11:12:10.972Z,48.89
2023-01-29T11:15:14.541Z,49.50
2023-01-29T11:18:01.629Z,49.88
2023-01-29T11:20:30.769Z,48.55
2023-01-29T11:23:00.499Z,49.91
2023-01-29T11:25:31.110Z,49.69
2023-01-29T11:28:02.538Z,50.18
2023-01-29T11:30:35.828Z,49.18
2023-01-29T11:33:10.212Z,49.20
2023-01-29T11:35:37.213Z,48.31
2023-01-29T11:38:18.581Z,48.62
2023-01-29T11:40:45.843Z,48.17
2023-01-29T11:43:39.490Z,48.25
2023-01-29T11:46:12.545Z,48.74
2023-01-29T11:48:51.696Z,48.65
2023-01-29T11:51:25.641Z,48.50
2023-01-29T11:53:58.192Z,48.71
2023-01-29T11:56:29.810Z,48.42
2023-01-29T11:59:00.867Z,48.14
2023-01-29T12:01:40.501Z,49.04
2023-01-29T12:04:21.715Z,48.68
2023-01-29T12:06:52.683Z,48.89
2023-01-29T12:09:28.593Z,47.18
2023-01-29T12:11:56.115Z,48.59
2023-01-29T12:14:34.241Z,48.76
2023-01-29T12:17:06.504Z,48.09
2023-01-29T12:19:51.862Z,48.67
2023-01-29T12:22:24.220Z,47.54
2023-01-29T12:25:02.001Z,47.39
2023-01-29T12:27:39.425Z,48.39
2023-01-29T12:30:11.591Z,48.29
2023-01-29T12:32:56.570Z,48.15
2023-01-29T12:35:47.971Z,48.34
2023-01-29T12:38:18.995Z,48.35
2023-01-29T12:40:51.831Z,48.00
2023-01-29T12:43:43.370Z,47.81
2023-01-29T12:46:34.569Z,47.99
2023-01-29T12:49:07.458Z,47.84
2023-01-29T12:51:48.497Z,48.27
2023-01-29T12:54:20.172Z,47.77
2023-01-29T12:56:53.418Z,48.11
2023-01-29T12:59:31.727Z,48.10
2023-01-29T13:02:18.164Z,47.54
2023-01-29T13:04:54.718Z,48.34
2023-01-29T13:07:28.638Z,47.31
2023-01-29T13:10:05.684Z,48.09
2023-01-29T13:12:33.952Z,48.13
2023-01-29T13:15:06.852Z,48.95
2023-01-29T13:17:39.483Z,48.83
2023-01-29T13:20:31.044Z,48.66
2023-01-29T13:23:32.741Z,49.50
2023-01-29T13:26:02.238Z,49.36
2023-01-29T13:28:28.875Z,48.56
2023-01-29T13:31:29.248Z,48.73
2023-01-29T13:34:14.215Z,48.72
2023-01-29T13:36:50.560Z,48.37
2023-01-29T13:39:27.146Z,48.65
2023-01-29T13:41:55.284Z,48.58
2023-01-29T13:44:29.428Z,48.28
2023-01-29T13:47:01.970Z,48.08
2023-01-29T13:49:40.450Z,48.94
2023-01-29T13:52:15.137Z,48.20
2023-01-29T13:54:50.676Z,48.24
2023-01-29T13:57:38.363Z,48.20
2023-01-29T14:00:07.128Z,48.16
2023-01-29T14:02:34.034Z,48.78
2023-01-29T14:05:31.878Z,48.93
2023-01-29T14:08:03.716Z,49.16
2023-01-29T14:10:32.833Z,48.00
2023-01-29T14:13:23.632Z,48.59
2023-01-29T14:15:59.280Z,48.92
2023-01-29T14:18:28.303Z,49.12
2023-01-29T14:21:03.767Z,48.65
2023-01-29T14:23:41.317Z,49.16
2023-01-29T14:26:47.614Z,49.93
2023-01-29T14:29:33.845Z,49.86
2023-01-29T14:32:15.471Z,49.75
2023-01-29T14:34:45.898Z,50.88
2023-01-29T14:37:15.272Z,50.54
2023-01-29T14:40:13.460Z,50.14
2023-01-29T14:42:54.810Z,49.76
2023-01-29T14:45:28.838Z,50.05
2023-01-29T14:48:23.206Z,51.30
2023-01-29T14:50:52.152Z,50.38
2023-01-29T14:53:40.277Z,50.34
2023-01-29T14:56:16.048Z,50.84
2023-01-29T14:58:47.499Z,50.86
2023-01-29T15:01:32.899Z,51.45
2023-01-29T15:04:13.122Z,51.55
2023-01-29T15:06:47.313Z,52.42
2023-01-29T15:09:16.634Z,52.29
2023-01-29T15:12:00.554Z,52.67
2023-01-29T15:14:36.811Z,52.16
2023-01-29T15:17:10.836Z,52.22
2023-01-29T15:19:59.828Z,52.70
2023-01-29T15:22:32.485Z,52.93
2023-01-29T15:25:21.715Z,52.68
2023-01-29T15:27:49.330Z,53.37
2023-01-29T15:30:22.041Z,53.23
2023-01-29T15:32:49.410Z,54.39
2023-01-29T15:35:30.416Z,54.34
2023-01-29T15:38:19.111Z,53.72
2023-01-29T15:40:56.589Z,53.89
2023-01-29T15:43:35.575Z,54.63
2023-01-29T15:46:06.647Z,54.25
2023-01-29T15:48:43.108Z,54.50
2023-01-29T15:51:16.544Z,53.53
2023-01-29T15:53:50.680Z,54.60
2023-01-29T15:56:20.114Z,54.65
2023-01-29T15:58:51.882Z,55.37
2023-01-29T16:01:21.158Z,56.16
2023-01-29T16:03:50.544Z,56.20
2023-01-29T16:06:20.457Z,56.96
2023-01-29T16:08:51.479Z,56.14
2023-01-29T16:11:19.371Z,55.90
2023-01-29T16:13:48.764Z,56.30
2023-01-29T16:16:15.355Z,56.60
2023-01-29T16:18:57.817Z,56.20
2023-01-29T16:21:31.249Z,56.99
2023-01-29T16:24:15.999Z,56.98
2023-01-29T16:26:47.383Z,57.10
2023-01-29T16:29:17.242Z,56.19
2023-01-29T16:31:46.099Z,57.29
2023-01-29T16:34:36.069Z,58.12
2023-01-29T16:37:06.723Z,57.35
2023-01-29T16:39:43.182Z,57.46
2023-01-29T16:42:09.899Z,57.19
2023-01-29T16:44:39.445Z,57.38
2023-01-29T16:47:14.257Z,58.51
2023-01-29T16:49:44.065Z,58.57
2023-01-29T16:52:24.073Z,57.93
2023-01-29T16:54:50.712Z,58.51
2023-01-29T16:57:26.642Z,58.92
2023-01-29T16:59:59.190Z,58.20
2023-01-29T17:02:29.582Z,59.29
2023-01-29T17:05:01.435Z,59.48
2023-01-29T17:07:29.118Z,60.55
2023-01-29T17:09:59.921Z,61.45
2023-01-29T17:12:28.780Z,61.41
2023-01-29T17:15:01.494Z,61.96
2023-01-29T17:17:31.848Z,61.37
2023-01-29T17:20:15.671Z,60.47
2023-01-29T17:22:43.255Z,60.54
2023-01-29T17:25:13.439Z,60.62
2023-01-29T17:27:45.396Z,60.44
2023-01-29T17:30:17.241Z,60.65
2023-01-29T17:32:45.164Z,60.93
2023-01-29T17:35:15.743Z,60.21
2023-01-29T17:37:42.861Z,60.85
2023-01-29T17:40:25.785Z,59.56
2023-01-29T17:42:52.379Z,60.49
2023-01-29T17:45:19.253Z,61.13
2023-01-29T17:47:46.041Z,60.73
2023-01-29T17:50:21.333Z,60.80
2023-01-29T17:52:48.198Z,61.35
2023-01-29T17:55:15.041Z,62.16
2023-01-29T17:57:41.776Z,61.71
2023-01-29T18:00:22.686Z,62.35
2023-01-29T18:02:49.575Z,61.20
2023-01-29T18:05:17.435Z,61.61
2023-01-29T18:07:46.702Z,61.51
2023-01-29T18:10:18.270Z,61.50
2023-01-29T18:12:44.833Z,61.84
2023-01-29T18:15:12.120Z,61.76
2023-01-29T18:17:39.742Z,61.59
2023-01-29T18:20:18.638Z,61.70
2023-01-29T18:22:45.606Z,62.14
2023-01-29T18:25:12.356Z,61.89
2023-01-29T18:27:38.872Z,62.38
2023-01-29T18:30:05.916Z,62.27
2023-01-29T18:32:32.485Z,63.10
2023-01-29T18:34:59.062Z,62.94
2023-01-29T18:37:25.555Z,63.28
2023-01-29T18:39:53.097Z,64.01
2023-01-29T18:42:19.668Z,63.36
2023-01-29T18:44:46.168Z,63.53
2023-01-29T18:47:12.705Z,63.72
2023-01-29T18:49:39.435Z,64.08
2023-01-29T18:52:09.295Z,63.82
2023-01-29T18:54:35.846Z,64.14
2023-01-29T18:57:13.137Z,63.99
2023-01-29T18:59:40.821Z,64.58
2023-01-29T19:02:07.989Z,64.17
2023-01-29T19:04:34.493Z,64.05
2023-01-29T19:07:01.015Z,63.83
2023-01-29T19:09:27.635Z,64.11
2023-01-29T19:11:54.272Z,63.90
2023-01-29T19:14:20.864Z,64.45
2023-01-29T19:16:47.547Z,64.17
2023-01-29T19:19:14.245Z,63.80
2023-01-29T19:21:40.857Z,63.80
2023-01-29T19:24:10.123Z,63.59
2023-01-29T19:26:36.743Z,63.85
2023-01-29T19:29:03.982Z,64.38
2023-01-29T19:31:32.039Z,63.96
2023-01-29T19:33:58.888Z,64.53
2023-01-29T19:36:25.524Z,64.52
2023-01-29T19:38:52.205Z,64.13
2023-01-29T19:41:19.071Z,65.22
2023-01-29T19:43:46.392Z,65.42
2023-01-29T19:46:12.998Z,64.99
2023-01-29T19:48:39.624Z,65.41
2023-01-29T19:51:08.971Z,64.89
2023-01-29T19:53:37.010Z,65.13
2023-01-29T19:56:08.956Z,65.75
2023-01-29T19:58:36.156Z,66.10
2023-01-29T20:01:10.778Z,66.51
2023-01-29T20:03:38.054Z,66.35
2023-01-29T20:06:06.171Z,66.76
2023-01-29T20:08:33.672Z,66.55
2023-01-29T20:11:00.519Z,67.08
2023-01-29T20:13:27.121Z,66.98
2023-01-29T20:15:55.445Z,66.98
2023-01-29T20:18:22.055Z,67.45
2023-01-29T20:20:50.457Z,67.24
2023-01-29T20:23:35.251Z,66.97
2023-01-29T20:26:04.719Z,67.22
2023-01-29T20:28:31.342Z,66.78
2023-01-29T20:30:59.135Z,66.13
2023-01-29T20:33:26.295Z,66.45
2023-01-29T20:36:01.807Z,66.73
2023-01-29T20:38:31.473Z,66.62
2023-01-29T20:41:06.334Z,66.16
2023-01-29T20:43:33.340Z,66.33
2023-01-29T20:46:00.889Z,66.68
2023-01-29T20:48:27.605Z,66.87
2023-01-29T20:50:54.794Z,66.75
2023-01-29T20:53:23.901Z,66.12
2023-01-29T20:55:50.805Z,66.29
2023-01-29T20:58:17.525Z,67.00
2023-01-29T21:00:44.902Z,67.22
2023-01-29T21:03:11.588Z,66.88
2023-01-29T21:05:38.103Z,67.56
2023-01-29T21:08:04.882Z,67.87
2023-01-29T21:10:31.488Z,68.63
2023-01-29T21:12:58.312Z,68.64
2023-01-29T21:15:27.294Z,68.55
2023-01-29T21:17:54.611Z,68.21
2023-01-29T21:20:21.405Z,68.62
2023-01-29T21:22:49.114Z,68.14
2023-01-29T21:25:15.912Z,68.74
2023-01-29T21:27:42.403Z,68.29
2023-01-29T21:30:09.491Z,68.09
2023-01-29T21:32:36.072Z,68.49
2023-01-29T21:35:02.817Z,68.94
2023-01-29T21:37:29.514Z,69.03
2023-01-29T21:39:56.134Z,68.81
2023-01-29T21:42:41.045Z,68.82
2023-01-29T21:45:08.411Z,68.82
2023-01-29T21:47:34.888Z,68.78
2023-01-29T21:50:01.394Z,68.92
2023-01-29T21:52:27.996Z,68.73
2023-01-29T21:54:54.577Z,69.26
2023-01-29T21:57:21.076Z,69.12
2023-01-29T21:59:52.413Z,69.05
2023-01-29T22:02:20.770Z,68.87
2023-01-29T22:04:47.383Z,69.56
2023-01-29T22:07:14.235Z,69.33
2023-01-29T22:09:40.759Z,68.76
2023-01-29T22:12:08.084Z,69.24
2023-01-29T22:14:34.757Z,69.30
2023-01-29T22:17:01.469Z,69.59
2023-01-29T22:19:29.410Z,69.21
2023-01-29T22:21:56.376Z,69.58
2023-01-29T22:24:22.960Z,69.58
2023-01-29T22:26:49.702Z,69.51
2023-01-29T22:29:19.996Z,70.27
2023-01-29T22:31:47.149Z,69.91
2023-01-29T22:34:14.808Z,70.11
2023-01-29T22:36:41.545Z,70.24
2023-01-29T22:39:08.738Z,70.17
2023-01-29T22:41:35.446Z,70.83
2023-01-29T22:44:02.080Z,71.45
2023-01-29T22:46:29.024Z,71.34
2023-01-29T22:48:55.698Z,71.88
2023-01-29T22:51:22.815Z,71.25
2023-01-29T22:53:54.373Z,71.65
2023-01-29T22:56:25.400Z,71.22
2023-01-29T22:58:56.925Z,70.98
2023-01-29T23:01:26.011Z,70.87
2023-01-29T23:03:53.000Z,70.93
2023-01-29T23:06:21.707Z,71.27
2023-01-29T23:08:49.242Z,71.00
2023-01-29T23:11:19.918Z,71.18
2023-01-29T23:13:48.879Z,71.28
2023-01-29T23:16:16.756Z,71.79
2023-01-29T23:18:44.845Z,71.44
2023-01-29T23:21:12.606Z,71.98
2023-01-29T23:23:39.440Z,71.28
2023-01-29T23:26:25.817Z,71.65
2023-01-29T23:28:52.417Z,72.18
2023-01-29T23:31:19.078Z,71.83
2023-01-29T23:33:48.616Z,71.91
2023-01-29T23:36:15.132Z,72.16
2023-01-29T23:38:41.772Z,72.05
2023-01-29T23:41:08.435Z,72.08
2023-01-29T23:43:34.938Z,72.51
2023-01-29T23:46:01.868Z,71.70
2023-01-29T23:48:28.472Z,72.68
2023-01-29T23:50:55.037Z,72.25
2023-01-29T23:53:21.657Z,72.65
2023-01-29T23:55:58.985Z,72.45
2023-01-29T23:58:26.303Z,72.35
